Westbrook, Minnesota
Current Conditions -  °F | °C
As of 9:53 AM on Saturday 20 Dec 2014 (Local Time) from KTKC Reporting Station
Haze Haze  
Wind Chill: 24°   Ceiling: 900
Heat Index: 32°   Visibility: 5mi
Dew Point: 30°   Wind: 9mph
Humidity: 92%   Direction: 200°SSW
Pressure: 30.09"   Gusts: NA
Location:  44.04°N, 95.44°W
Report Text: KTKC 201553Z AUTO 20008KT 5SM BR OVC009 00/M01 A3009 RMK AO2 T00011011
Loading
Personal Weather Stations






























Interactive Weather Map New forecast layout! Learn more

10-Day Weather Forecast

Advertisements
Track Severe Weather on mobile